createdAt,value
2023-02-22T00:01:51.383Z,54.32
2023-02-22T00:04:56.605Z,54.69
2023-02-22T00:08:01.179Z,55.33
2023-02-22T00:11:09.511Z,54.82
2023-02-22T00:14:14.664Z,54.20
2023-02-22T00:17:20.687Z,54.14
2023-02-22T00:20:24.804Z,53.33
2023-02-22T00:23:32.089Z,53.87
2023-02-22T00:26:36.187Z,53.85
2023-02-22T00:29:46.398Z,54.87
2023-02-22T00:32:51.649Z,55.87
2023-02-22T00:35:58.378Z,55.78
2023-02-22T00:39:04.701Z,55.25
2023-02-22T00:42:27.199Z,55.50
2023-02-22T00:45:35.595Z,54.79
2023-02-22T00:48:41.261Z,53.78
2023-02-22T00:51:45.434Z,54.04
2023-02-22T00:54:49.644Z,53.29
2023-02-22T00:57:54.011Z,53.71
2023-02-22T01:01:00.952Z,53.10
2023-02-22T01:04:07.203Z,53.07
2023-02-22T01:07:11.277Z,52.81
2023-02-22T01:10:17.729Z,53.17
2023-02-22T01:13:23.256Z,53.11
2023-02-22T01:16:29.200Z,53.62
2023-02-22T01:19:33.881Z,53.83
2023-02-22T01:22:40.490Z,53.66
2023-02-22T01:25:46.290Z,53.12
2023-02-22T01:28:52.321Z,53.90
2023-02-22T01:32:02.044Z,53.99
2023-02-22T01:35:11.428Z,53.65
2023-02-22T01:38:18.236Z,53.19
2023-02-22T01:41:26.988Z,52.88
2023-02-22T01:44:42.037Z,53.30
2023-02-22T01:47:54.201Z,53.95
2023-02-22T01:51:04.227Z,53.66
2023-02-22T01:54:13.994Z,53.81
2023-02-22T01:57:26.338Z,53.19
2023-02-22T02:00:30.833Z,54.13
2023-02-22T02:03:41.977Z,53.62
2023-02-22T02:06:47.364Z,53.40
2023-02-22T02:09:58.936Z,53.49
2023-02-22T02:13:22.366Z,53.50
2023-02-22T02:16:36.522Z,54.04
2023-02-22T02:19:49.136Z,53.66
2023-02-22T02:23:01.003Z,52.82
2023-02-22T02:26:31.172Z,54.15
2023-02-22T02:30:06.447Z,54.16
2023-02-22T02:33:24.767Z,52.24
2023-02-22T02:36:37.388Z,53.55
2023-02-22T02:39:51.359Z,53.29
2023-02-22T02:43:04.396Z,53.18
2023-02-22T02:46:17.819Z,53.79
2023-02-22T02:49:34.498Z,53.82
2023-02-22T02:52:43.161Z,54.78
2023-02-22T02:55:53.539Z,54.40
2023-02-22T02:59:01.219Z,54.32
2023-02-22T03:02:22.152Z,54.32
2023-02-22T03:05:54.688Z,52.80
2023-02-22T03:09:17.626Z,53.87
2023-02-22T03:12:42.125Z,53.87
2023-02-22T03:15:58.444Z,53.30
2023-02-22T03:19:12.896Z,53.95
2023-02-22T03:22:30.564Z,53.54
2023-02-22T03:25:53.921Z,54.65
2023-02-22T03:29:03.423Z,54.96
2023-02-22T03:32:19.450Z,54.21
2023-02-22T03:35:33.846Z,54.41
2023-02-22T03:38:49.796Z,53.50
2023-02-22T03:42:17.419Z,54.25
2023-02-22T03:45:29.808Z,53.54
2023-02-22T03:48:42.902Z,54.07
2023-02-22T03:51:47.886Z,53.74
2023-02-22T03:55:04.429Z,53.17
2023-02-22T03:58:13.670Z,54.22
2023-02-22T04:01:24.126Z,55.00
2023-02-22T04:04:35.908Z,54.68
2023-02-22T04:07:44.413Z,53.79
2023-02-22T04:10:53.417Z,53.62
2023-02-22T04:14:01.133Z,54.15
2023-02-22T04:17:11.424Z,54.51
2023-02-22T04:20:20.104Z,54.32
2023-02-22T04:23:31.064Z,53.35
2023-02-22T04:26:37.711Z,54.47
2023-02-22T04:29:44.072Z,53.46
2023-02-22T04:32:53.280Z,52.61
2023-02-22T04:36:06.041Z,53.69
2023-02-22T04:39:14.019Z,53.19
2023-02-22T04:42:25.314Z,52.64
2023-02-22T04:45:32.080Z,52.51
2023-02-22T04:48:38.120Z,53.73
2023-02-22T04:51:47.685Z,53.37
2023-02-22T04:54:53.276Z,54.12
2023-02-22T04:58:04.245Z,54.33
2023-02-22T05:01:08.691Z,53.21
2023-02-22T05:04:17.572Z,53.45
2023-02-22T05:07:22.825Z,53.61
2023-02-22T05:10:31.340Z,54.11
2023-02-22T05:13:44.151Z,55.16
2023-02-22T05:17:08.747Z,55.01
2023-02-22T05:20:43.664Z,53.75
2023-02-22T05:29:19.112Z,56.11
2023-02-22T05:33:33.522Z,54.82
2023-02-22T05:37:27.065Z,53.52
2023-02-22T05:41:05.897Z,53.58
2023-02-22T05:45:05.609Z,54.07
2023-02-22T05:48:30.580Z,53.55
2023-02-22T05:51:59.838Z,53.35
2023-02-22T05:56:17.521Z,52.49
2023-02-22T05:59:38.514Z,53.44
2023-02-22T06:03:04.615Z,53.87
2023-02-22T06:07:09.324Z,54.89
2023-02-22T06:10:48.526Z,53.83
2023-02-22T06:15:17.335Z,55.08
2023-02-22T06:19:07.937Z,55.29
2023-02-22T06:22:31.534Z,55.18
2023-02-22T06:26:39.501Z,55.14
2023-02-22T06:30:13.178Z,56.01
2023-02-22T06:33:37.256Z,55.78
2023-02-22T06:36:53.677Z,55.41
2023-02-22T06:40:25.620Z,55.38
2023-02-22T06:44:00.224Z,54.84
2023-02-22T06:47:27.466Z,54.81
2023-02-22T06:50:52.325Z,54.69
2023-02-22T06:54:40.117Z,54.35
2023-02-22T06:58:25.803Z,54.60
2023-02-22T07:01:56.372Z,54.82
2023-02-22T07:05:15.847Z,55.36
2023-02-22T07:08:32.917Z,54.89
2023-02-22T07:12:43.410Z,54.88
2023-02-22T07:16:26.368Z,54.54
2023-02-22T07:19:39.973Z,55.71
2023-02-22T07:23:08.818Z,55.94
2023-02-22T07:26:28.100Z,56.15
2023-02-22T07:29:55.743Z,55.86
2023-02-22T07:33:30.802Z,55.76
2023-02-22T07:36:51.396Z,55.58
2023-02-22T07:40:46.060Z,54.97
2023-02-22T07:44:25.449Z,55.13
2023-02-22T07:48:09.121Z,56.84
2023-02-22T07:51:42.771Z,55.65
2023-02-22T07:55:25.353Z,56.00
2023-02-22T07:58:31.400Z,55.88
2023-02-22T08:01:37.526Z,56.01
2023-02-22T08:04:50.081Z,55.21
2023-02-22T08:08:09.916Z,55.95
2023-02-22T08:11:16.394Z,55.91
2023-02-22T08:14:35.082Z,55.86
2023-02-22T08:17:42.911Z,55.42
2023-02-22T08:20:55.639Z,55.30
2023-02-22T08:24:04.808Z,55.18
2023-02-22T08:27:13.486Z,55.26
2023-02-22T08:30:24.333Z,55.22
2023-02-22T08:33:28.888Z,55.08
2023-02-22T08:36:35.196Z,55.53
2023-02-22T08:39:58.727Z,55.87
2023-02-22T08:43:05.738Z,55.80
2023-02-22T08:46:25.113Z,55.34
2023-02-22T08:49:42.795Z,55.08
2023-02-22T08:52:56.310Z,56.13
2023-02-22T08:56:11.112Z,55.55
2023-02-22T08:59:55.362Z,55.53
2023-02-22T09:03:01.529Z,55.82
2023-02-22T09:06:08.277Z,56.06
2023-02-22T09:09:12.072Z,56.06
2023-02-22T09:12:22.592Z,55.81
2023-02-22T09:15:34.192Z,55.68
2023-02-22T09:18:45.053Z,55.04
2023-02-22T09:21:58.937Z,54.97
2023-02-22T09:25:15.930Z,54.88
2023-02-22T09:28:40.470Z,54.82
2023-02-22T09:31:49.600Z,54.79
2023-02-22T09:34:58.968Z,54.87
2023-02-22T09:38:09.364Z,54.13
2023-02-22T09:41:27.462Z,54.07
2023-02-22T09:44:49.897Z,54.45
2023-02-22T09:48:08.193Z,53.71
2023-02-22T09:51:21.820Z,52.95
2023-02-22T09:54:36.481Z,52.60
2023-02-22T09:57:52.022Z,52.76
2023-02-22T10:01:18.846Z,52.74
2023-02-22T10:05:00.259Z,52.48
2023-02-22T10:08:37.627Z,52.51
2023-02-22T10:12:03.678Z,51.89
2023-02-22T10:15:38.586Z,51.22
2023-02-22T10:19:08.619Z,50.66
2023-02-22T10:26:40.929Z,49.61
2023-02-22T10:30:12.700Z,50.20
2023-02-22T10:33:59.483Z,50.60
2023-02-22T10:38:00.799Z,50.65
2023-02-22T10:41:35.313Z,49.88
2023-02-22T10:44:59.089Z,50.95
2023-02-22T10:48:13.668Z,49.25
2023-02-22T10:51:23.195Z,49.62
2023-02-22T10:54:35.344Z,50.94
2023-02-22T10:57:44.660Z,50.09
2023-02-22T11:01:33.396Z,50.09
2023-02-22T11:04:51.679Z,50.37
2023-02-22T11:08:28.527Z,49.84
2023-02-22T11:11:37.090Z,50.26
2023-02-22T11:14:47.552Z,49.98
2023-02-22T11:18:01.940Z,49.53
2023-02-22T11:21:13.966Z,49.29
2023-02-22T11:24:24.428Z,49.33
2023-02-22T11:27:49.148Z,48.70
2023-02-22T11:31:16.666Z,49.17
2023-02-22T11:34:35.709Z,49.73
2023-02-22T11:37:41.687Z,49.25
2023-02-22T11:40:48.748Z,48.92
2023-02-22T11:43:54.466Z,48.38
2023-02-22T11:47:07.138Z,48.00
2023-02-22T11:50:22.481Z,48.70
2023-02-22T11:53:41.034Z,48.98
2023-02-22T11:56:55.876Z,49.59
2023-02-22T12:00:16.585Z,49.15
2023-02-22T12:03:49.302Z,47.60
2023-02-22T12:07:22.285Z,47.57
2023-02-22T12:10:42.207Z,45.80
2023-02-22T12:14:08.492Z,47.53
2023-02-22T12:17:27.790Z,47.22
2023-02-22T12:20:43.128Z,48.15
2023-02-22T12:23:59.869Z,48.20
2023-02-22T12:27:11.500Z,47.63
2023-02-22T12:30:24.361Z,47.17
2023-02-22T12:34:04.470Z,46.66
2023-02-22T12:37:34.685Z,47.08
2023-02-22T12:40:50.569Z,47.15
2023-02-22T12:44:10.190Z,47.20
2023-02-22T12:47:29.728Z,47.34
2023-02-22T12:50:43.557Z,47.44
2023-02-22T12:54:03.913Z,47.09
2023-02-22T12:57:38.037Z,46.96
2023-02-22T13:00:49.862Z,46.24
2023-02-22T13:03:56.440Z,46.12
2023-02-22T13:07:13.126Z,45.21
2023-02-22T13:10:44.943Z,44.81
2023-02-22T13:14:03.755Z,44.92
2023-02-22T13:17:21.331Z,44.45
2023-02-22T13:20:31.369Z,45.25
2023-02-22T13:27:56.246Z,45.16
2023-02-22T13:31:41.857Z,45.17
2023-02-22T13:35:40.310Z,45.66
2023-02-22T13:39:35.699Z,44.88
2023-02-22T13:43:21.724Z,44.27
2023-02-22T13:47:04.198Z,44.16
2023-02-22T13:50:46.545Z,45.00
2023-02-22T13:54:08.438Z,44.95
2023-02-22T13:57:26.735Z,44.34
2023-02-22T14:01:03.659Z,44.02
2023-02-22T14:04:46.332Z,44.44
2023-02-22T14:11:58.902Z,44.98
2023-02-22T14:15:32.724Z,44.12
2023-02-22T14:18:46.559Z,44.11
2023-02-22T14:22:02.341Z,44.37
2023-02-22T14:25:45.201Z,43.76
2023-02-22T14:28:55.813Z,43.61
2023-02-22T14:32:05.680Z,43.66
2023-02-22T14:35:26.457Z,44.49
2023-02-22T14:38:32.573Z,44.67
2023-02-22T14:41:41.174Z,44.68
2023-02-22T14:45:00.663Z,44.24
2023-02-22T14:48:13.874Z,44.62
2023-02-22T14:51:26.496Z,44.56
2023-02-22T14:54:40.174Z,44.80
2023-02-22T14:57:56.946Z,45.50
2023-02-22T15:04:53.774Z,45.23
2023-02-22T15:08:04.319Z,45.57
2023-02-22T15:11:23.628Z,45.92
2023-02-22T15:14:37.956Z,45.96
2023-02-22T15:17:47.037Z,45.87
2023-02-22T15:21:00.140Z,46.37
2023-02-22T15:24:08.154Z,46.42
2023-02-22T15:27:21.773Z,46.41
2023-02-22T15:30:36.243Z,46.36
2023-02-22T15:33:44.993Z,46.42
2023-02-22T15:36:57.793Z,46.70
2023-02-22T15:40:14.660Z,46.62
2023-02-22T15:43:26.009Z,46.77
2023-02-22T15:46:35.853Z,46.74
2023-02-22T15:49:46.125Z,47.00
2023-02-22T15:52:53.915Z,47.02
2023-02-22T15:56:02.695Z,47.01
2023-02-22T15:59:14.910Z,46.93
2023-02-22T16:02:44.093Z,47.42
2023-02-22T16:06:01.444Z,47.42
2023-02-22T16:09:12.182Z,47.37
2023-02-22T16:12:28.665Z,47.64
2023-02-22T16:15:34.603Z,47.97
2023-02-22T16:18:43.340Z,47.54
2023-02-22T16:21:56.264Z,47.85
2023-02-22T16:25:25.505Z,48.19
2023-02-22T16:28:36.640Z,47.81
2023-02-22T16:31:45.904Z,48.21
2023-02-22T16:34:51.833Z,48.33
2023-02-22T16:38:01.861Z,48.57
2023-02-22T16:41:10.226Z,48.48
2023-02-22T16:44:16.905Z,48.61
2023-02-22T16:47:23.361Z,48.26
2023-02-22T16:50:28.418Z,48.42
2023-02-22T16:53:35.839Z,48.78
2023-02-22T16:56:42.904Z,48.90
2023-02-22T17:00:14.227Z,49.02
2023-02-22T17:03:40.304Z,49.42
2023-02-22T17:06:57.533Z,50.20
2023-02-22T17:10:02.180Z,50.00
2023-02-22T17:13:22.380Z,50.12
2023-02-22T17:16:30.795Z,49.79
2023-02-22T17:19:37.657Z,50.28
2023-02-22T17:22:45.589Z,50.84
2023-02-22T17:25:55.446Z,51.12
2023-02-22T17:29:01.285Z,52.28
2023-02-22T17:32:09.105Z,52.70
2023-02-22T17:35:14.905Z,52.79
2023-02-22T17:38:19.760Z,51.91
2023-02-22T17:41:23.657Z,52.61
2023-02-22T17:44:30.243Z,53.78
2023-02-22T17:47:39.279Z,52.51
2023-02-22T17:51:10.989Z,53.86
2023-02-22T17:54:19.160Z,54.12
2023-02-22T17:57:26.014Z,54.09
2023-02-22T18:00:34.178Z,54.03
2023-02-22T18:03:40.320Z,54.62
2023-02-22T18:06:53.297Z,54.59
2023-02-22T18:10:03.861Z,54.07
2023-02-22T18:13:09.302Z,53.95
2023-02-22T18:16:20.754Z,53.68
2023-02-22T18:19:29.272Z,52.96
2023-02-22T18:22:33.432Z,52.59
2023-02-22T18:25:41.063Z,52.22
2023-02-22T18:28:55.503Z,52.98
2023-02-22T18:32:02.894Z,52.50
2023-02-22T18:35:09.429Z,52.12
2023-02-22T18:38:14.753Z,52.86
2023-02-22T18:41:25.361Z,52.68
2023-02-22T18:44:29.180Z,52.81
2023-02-22T18:47:38.973Z,52.44
2023-02-22T18:50:44.764Z,53.15
2023-02-22T18:53:50.188Z,53.53
2023-02-22T18:56:54.097Z,53.52
2023-02-22T18:59:58.557Z,53.16
2023-02-22T19:03:07.735Z,53.49
2023-02-22T19:06:15.784Z,53.13
2023-02-22T19:09:19.650Z,53.50
2023-02-22T19:12:23.707Z,53.91
2023-02-22T19:15:27.472Z,53.20
2023-02-22T19:18:34.507Z,53.51
2023-02-22T19:21:56.617Z,53.50
2023-02-22T19:25:20.589Z,53.60
2023-02-22T19:28:33.943Z,54.36
2023-02-22T19:31:40.177Z,54.36
2023-02-22T19:34:45.376Z,54.34
2023-02-22T19:37:53.856Z,54.20
2023-02-22T19:40:57.249Z,54.30
2023-02-22T19:44:02.955Z,53.96
2023-02-22T19:47:10.147Z,53.66
2023-02-22T19:50:16.377Z,53.70
2023-02-22T19:53:21.926Z,53.48
2023-02-22T19:56:28.894Z,54.05
2023-02-22T19:59:35.669Z,55.20
2023-02-22T20:02:40.699Z,54.14
2023-02-22T20:05:47.014Z,54.32
2023-02-22T20:08:54.935Z,54.79
2023-02-22T20:12:03.459Z,54.89
2023-02-22T20:15:18.152Z,55.04
2023-02-22T20:18:23.798Z,55.48
2023-02-22T20:21:41.607Z,55.65
2023-02-22T20:24:50.396Z,55.41
2023-02-22T20:27:59.192Z,54.48
2023-02-22T20:31:03.159Z,53.78
2023-02-22T20:34:13.362Z,54.26
2023-02-22T20:37:22.721Z,54.32
2023-02-22T20:40:32.587Z,54.64
2023-02-22T20:43:42.304Z,54.15
2023-02-22T20:46:53.171Z,53.98
2023-02-22T20:50:08.553Z,54.38
2023-02-22T20:53:23.729Z,56.12
2023-02-22T20:56:34.514Z,56.46
2023-02-22T20:59:42.498Z,56.01
2023-02-22T21:02:52.981Z,55.78
2023-02-22T21:06:21.707Z,55.91
2023-02-22T21:09:27.092Z,56.19
2023-02-22T21:12:45.134Z,55.70
2023-02-22T21:16:07.680Z,56.07
2023-02-22T21:19:12.833Z,55.10
2023-02-22T21:22:16.687Z,56.21
2023-02-22T21:25:20.754Z,56.69
2023-02-22T21:28:32.393Z,56.55
2023-02-22T21:31:55.201Z,55.33
2023-02-22T21:35:01.521Z,54.97
2023-02-22T21:38:06.435Z,54.78
2023-02-22T21:41:12.145Z,54.42
2023-02-22T21:44:18.590Z,54.72
2023-02-22T21:47:22.760Z,53.90
2023-02-22T21:50:31.294Z,53.91
2023-02-22T21:53:45.941Z,55.00
2023-02-22T21:56:51.132Z,55.16
2023-02-22T21:59:56.471Z,55.42
2023-02-22T22:03:07.858Z,56.41
2023-02-22T22:06:13.964Z,55.73
2023-02-22T22:09:23.904Z,55.97
2023-02-22T22:12:38.850Z,55.81
2023-02-22T22:15:45.016Z,55.86
2023-02-22T22:18:48.820Z,54.91
2023-02-22T22:21:54.088Z,55.00
2023-02-22T22:24:57.788Z,55.44
2023-02-22T22:28:01.641Z,54.77
2023-02-22T22:31:08.686Z,56.28
2023-02-22T22:34:13.156Z,56.14
2023-02-22T22:37:17.076Z,56.13
2023-02-22T22:40:21.423Z,55.83
2023-02-22T22:43:25.186Z,56.54
2023-02-22T22:46:32.597Z,56.43
2023-02-22T22:49:40.470Z,55.14
2023-02-22T22:53:06.741Z,56.04
2023-02-22T22:56:14.405Z,54.62
2023-02-22T22:59:19.521Z,54.46
2023-02-22T23:02:24.695Z,54.77
2023-02-22T23:05:29.951Z,55.75
2023-02-22T23:08:43.263Z,56.39
2023-02-22T23:11:51.167Z,56.05
2023-02-22T23:14:58.861Z,55.63
2023-02-22T23:18:10.722Z,55.59
2023-02-22T23:21:18.233Z,55.73
2023-02-22T23:24:27.354Z,56.36
2023-02-22T23:27:34.488Z,56.03
2023-02-22T23:30:39.394Z,55.02
2023-02-22T23:33:48.313Z,55.00
2023-02-22T23:36:54.213Z,54.98
2023-02-22T23:40:00.292Z,56.37
2023-02-22T23:43:06.726Z,57.44
2023-02-22T23:46:13.472Z,56.49
2023-02-22T23:49:20.729Z,55.68
2023-02-22T23:52:29.937Z,55.08
2023-02-22T23:55:39.172Z,55.02
2023-02-22T23:58:52.396Z,56.08
